Time;durP1;ratioP1;P1;durP2;ratioP2;P2;SDS_P1;SDS_P2;PMS_P1;PMS_P2;Temp;Humidity;BMP_temperature;BMP_pressure;BME280_temperature;BME280_humidity;BME280_pressure;Samples;Min_cycle;Max_cycle;Signal;HPM_P1;HPM_P2
2024/02/10 00:00:26;;;;;;;11.52;3.50;;;;;;;-146.27;87.12;42560.16;5064603;28;20024;-70
2024/02/10 00:02:54;;;;;;;11.32;4.40;;;;;;;-146.27;86.88;42564.13;5070074;28;20032;-70
2024/02/10 00:05:21;;;;;;;15.95;4.07;;;;;;;-146.27;86.64;42556.16;5071305;28;20192;-72
2024/02/10 00:07:52;;;;;;;10.25;3.38;;;;;;;-146.27;86.53;42617.81;5069270;28;20055;-71
2024/02/10 00:10:21;;;;;;;9.57;3.25;;;;;;;-146.27;86.45;42564.13;5064651;28;20037;-71
2024/02/10 00:12:47;;;;;;;16.33;3.47;;;;;;;-146.27;86.48;42595.94;5069177;28;20028;-71
2024/02/10 00:15:13;;;;;;;8.50;4.03;;;;;;;-146.27;86.69;42580.03;5069990;28;20036;-71
2024/02/10 00:17:40;;;;;;;8.07;3.67;;;;;;;-146.27;86.40;42564.13;5069482;28;20077;-71
2024/02/10 00:20:13;;;;;;;10.88;4.13;;;;;;;-146.27;86.34;42560.16;5066297;28;20042;-71
2024/02/10 00:22:38;;;;;;;8.73;3.80;;;;;;;-146.27;86.45;42560.16;5070828;28;20107;-72
2024/02/10 00:25:05;;;;;;;9.20;3.75;;;;;;;-146.27;86.26;42584.00;5067549;28;20421;-72
2024/02/10 00:27:31;;;;;;;8.57;4.10;;;;;;;-146.27;86.30;42558.16;5061829;28;20036;-71
2024/02/10 00:29:56;;;;;;;10.20;3.63;;;;;;;-146.27;86.38;42588.00;5063572;28;20502;-71
2024/02/10 00:32:23;;;;;;;9.50;4.97;;;;;;;-146.27;86.36;42546.22;5067204;28;20545;-72
2024/02/10 00:34:48;;;;;;;11.55;3.42;;;;;;;-146.27;86.37;42570.09;5066902;28;20129;-71
2024/02/10 00:37:16;;;;;;;10.65;3.88;;;;;;;-146.27;86.35;42552.19;5064617;28;20055;-72
2024/02/10 00:39:42;;;;;;;11.43;3.72;;;;;;;-146.27;86.75;42570.09;5067015;28;20021;-71
2024/02/10 00:42:08;;;;;;;9.82;3.25;;;;;;;-146.27;86.52;42548.22;5067816;28;20040;-71
2024/02/10 00:44:34;;;;;;;9.75;3.88;;;;;;;-146.27;86.26;42544.25;5069689;28;20025;-71
2024/02/10 00:47:00;;;;;;;10.88;3.45;;;;;;;-146.27;86.29;42544.25;5069661;28;20027;-71
2024/02/10 00:49:26;;;;;;;6.78;3.58;;;;;;;-146.27;86.34;42560.16;5068071;28;20477;-71
2024/02/10 00:51:55;;;;;;;9.40;3.10;;;;;;;-146.27;86.82;42576.06;5066406;28;20477;-71
2024/02/10 00:54:27;;;;;;;9.85;3.28;;;;;;;-146.27;86.77;42580.03;5063472;28;20146;-72
2024/02/10 00:56:56;;;;;;;9.55;3.92;;;;;;;-146.27;86.78;42544.25;5065628;28;20028;-71
2024/02/10 00:59:22;;;;;;;9.70;2.92;;;;;;;-146.27;86.86;42548.22;5069211;28;20020;-69
2024/02/10 01:01:52;;;;;;;12.30;3.55;;;;;;;-146.27;86.72;42572.09;5060369;28;20036;-72
2024/02/10 01:04:19;;;;;;;8.35;3.45;;;;;;;-146.27;86.80;42528.31;5071140;28;20382;-71
2024/02/10 01:06:47;;;;;;;11.13;3.15;;;;;;;-146.27;86.94;42548.22;5069034;28;20052;-72
2024/02/10 01:09:13;;;;;;;6.45;2.92;;;;;;;-146.27;87.08;42524.34;5070080;28;20113;-72
2024/02/10 01:11:41;;;;;;;8.82;3.25;;;;;;;-146.27;86.92;42524.34;5066581;28;20506;-72
2024/02/10 01:14:08;;;;;;;9.93;3.78;;;;;;;-146.27;87.52;42534.28;5056999;28;20144;-72
2024/02/10 01:16:36;;;;;;;7.15;3.50;;;;;;;-146.27;87.32;42504.47;5066437;28;20032;-71
2024/02/10 01:19:01;;;;;;;7.78;3.30;;;;;;;-146.27;88.23;42572.09;5069564;28;20540;-72
2024/02/10 01:21:27;;;;;;;13.55;3.60;;;;;;;-146.27;88.18;42534.28;5070563;28;20100;-72
2024/02/10 01:23:52;;;;;;;8.10;3.65;;;;;;;-146.27;87.83;42506.44;5069213;28;20507;-72
2024/02/10 01:26:17;;;;;;;14.50;3.50;;;;;;;-146.27;87.82;42488.56;5068794;28;20400;-72
2024/02/10 01:28:44;;;;;;;8.45;3.45;;;;;;;-146.27;88.20;42504.47;5066336;28;20035;-71
2024/02/10 01:31:11;;;;;;;8.30;4.15;;;;;;;-146.27;88.53;42488.56;5066491;28;20031;-71
2024/02/10 01:33:37;;;;;;;8.32;3.50;;;;;;;-146.27;89.01;42488.56;5066706;28;20490;-71
2024/02/10 01:36:03;;;;;;;7.75;3.30;;;;;;;-146.27;89.04;42472.66;5063579;28;20044;-71
2024/02/10 01:38:29;;;;;;;10.35;3.78;;;;;;;-146.27;89.03;42458.72;5067548;28;20663;-71
2024/02/10 01:40:55;;;;;;;8.38;3.08;;;;;;;-146.27;89.03;42428.88;5068796;28;20032;-71
2024/02/10 01:43:20;;;;;;;14.13;3.75;;;;;;;-146.27;89.05;42468.66;5063320;28;20035;-71
2024/02/10 01:45:50;;;;;;;8.93;3.88;;;;;;;-146.27;89.18;42454.75;5059873;28;20436;-71
2024/02/10 01:48:18;;;;;;;7.32;3.67;;;;;;;-146.27;89.17;42456.72;5068539;28;20032;-71
2024/02/10 01:50:44;;;;;;;12.50;4.22;;;;;;;-146.27;89.38;42464.69;5065673;28;20482;-72
2024/02/10 01:53:09;;;;;;;8.55;3.83;;;;;;;-146.27;89.40;42482.59;5068734;28;20039;-72
2024/02/10 01:55:35;;;;;;;12.73;3.67;;;;;;;-146.27;89.53;42456.72;5065537;28;20025;-72
2024/02/10 01:58:05;;;;;;;6.90;3.53;;;;;;;-146.27;89.59;42440.81;5067987;28;20051;-72
2024/02/10 02:00:31;;;;;;;7.55;3.20;;;;;;;-146.27;89.39;42428.88;5062433;28;20025;-71
2024/02/10 02:02:59;;;;;;;12.23;3.70;;;;;;;-146.27;89.75;42405.03;5068719;28;20028;-72
2024/02/10 02:05:26;;;;;;;10.70;2.60;;;;;;;-146.27;89.57;42416.97;5065419;28;20478;-71
2024/02/10 02:07:53;;;;;;;8.75;2.60;;;;;;;-146.27;89.53;42424.91;5068424;28;20081;-71
2024/02/10 02:10:21;;;;;;;6.43;2.70;;;;;;;-146.27;89.67;42418.94;5056698;28;20025;-72
2024/02/10 02:12:50;;;;;;;11.65;3.83;;;;;;;-146.27;89.75;42375.19;5053905;28;20053;-71
2024/02/10 02:15:17;;;;;;;8.18;3.00;;;;;;;-146.27;89.92;42397.06;5059759;28;20032;-72
2024/02/10 02:17:43;;;;;;;4.72;2.42;;;;;;;-146.27;89.99;42395.09;5066076;28;20078;-72
2024/02/10 02:20:10;;;;;;;10.55;3.38;;;;;;;-146.27;89.79;42397.06;5067643;28;20480;-71
2024/02/10 02:22:36;;;;;;;8.32;2.83;;;;;;;-146.27;89.99;42341.38;5066681;28;20593;-71
2024/02/10 02:25:01;;;;;;;12.55;3.15;;;;;;;-146.27;89.97;42361.28;5067987;28;20032;-71
2024/02/10 02:27:26;;;;;;;11.32;3.88;;;;;;;-146.27;90.21;42351.34;5066230;28;20052;-72
2024/02/10 02:29:52;;;;;;;10.02;3.47;;;;;;;-146.27;90.17;42341.38;5065100;28;20021;-72
2024/02/10 02:32:17;;;;;;;6.85;3.13;;;;;;;-146.27;90.19;42297.63;5067703;28;20427;-71
2024/02/10 02:34:44;;;;;;;15.68;4.60;;;;;;;-146.27;90.10;42317.53;5064783;28;20071;-72
2024/02/10 02:37:10;;;;;;;10.45;3.08;;;;;;;-146.27;90.09;42325.47;5059810;28;20568;-72
2024/02/10 02:39:35;;;;;;;7.75;2.90;;;;;;;-146.27;90.25;42333.44;5068775;28;20073;-71
2024/02/10 02:42:02;;;;;;;6.78;2.90;;;;;;;-146.27;90.50;42307.56;5049917;28;20397;-71
2024/02/10 02:44:27;;;;;;;6.22;2.70;;;;;;;-146.27;90.62;42251.91;5063238;28;20063;-72
2024/02/10 02:46:54;;;;;;;8.60;3.33;;;;;;;-146.27;90.71;42253.88;5066261;28;20449;-70
2024/02/10 02:49:23;;;;;;;9.25;2.95;;;;;;;-146.27;90.91;42241.97;5068588;28;20099;-71
2024/02/10 02:51:51;;;;;;;9.00;2.65;;;;;;;-146.27;90.88;42241.97;5064468;28;20032;-71
2024/02/10 02:54:18;;;;;;;5.70;2.97;;;;;;;-146.27;90.82;42202.19;5070140;28;20041;-71
2024/02/10 02:56:45;;;;;;;8.82;3.13;;;;;;;-146.27;90.81;42214.13;5078457;28;20400;-71
2024/02/10 02:59:13;;;;;;;8.75;2.92;;;;;;;-146.27;90.90;42234.00;5065388;28;20055;-71
2024/02/10 03:01:40;;;;;;;11.65;3.03;;;;;;;-146.27;91.15;42208.16;5069378;28;20098;-71
2024/02/10 03:04:06;;;;;;;9.10;2.97;;;;;;;-146.27;91.26;42218.09;5056307;28;20059;-72
2024/02/10 03:06:31;;;;;;;11.48;3.30;;;;;;;-146.27;91.36;42226.03;5061513;28;20024;-71
2024/02/10 03:08:58;;;;;;;12.18;3.45;;;;;;;-146.27;91.07;42218.09;5072688;28;20032;-71
2024/02/10 03:11:23;;;;;;;11.85;2.85;;;;;;;-146.27;91.23;42200.19;5073174;28;20078;-72
2024/02/10 03:13:49;;;;;;;9.80;2.85;;;;;;;-146.27;91.33;42190.25;5072607;28;20052;-70
2024/02/10 03:16:17;;;;;;;9.52;3.08;;;;;;;-146.27;91.55;42168.38;5071947;28;20024;-70
2024/02/10 03:18:46;;;;;;;7.80;3.10;;;;;;;-146.27;91.31;42182.28;5073130;28;20100;-72
2024/02/10 03:21:13;;;;;;;10.10;3.20;;;;;;;-146.27;91.46;42158.44;5071844;28;20567;-72
2024/02/10 03:23:39;;;;;;;9.63;3.38;;;;;;;-146.27;91.41;42154.47;5071370;28;20055;-71
2024/02/10 03:26:05;;;;;;;12.60;3.05;;;;;;;-146.27;91.47;42154.47;5072197;28;20059;-72
2024/02/10 03:28:33;;;;;;;7.32;3.20;;;;;;;-146.27;91.40;42178.31;5069155;28;20025;-71
2024/02/10 03:30:59;;;;;;;14.52;4.32;;;;;;;-146.27;91.51;42172.34;5063799;28;20075;-71
2024/02/10 03:33:24;;;;;;;8.73;3.35;;;;;;;-146.27;91.54;42146.50;5066972;28;20064;-71
2024/02/10 03:35:53;;;;;;;9.63;3.30;;;;;;;-146.27;91.56;42140.53;5071480;28;20043;-70
2024/02/10 03:38:20;;;;;;;8.57;3.13;;;;;;;-146.27;91.34;42154.47;5072049;28;20066;-71
2024/02/10 03:40:46;;;;;;;10.70;3.30;;;;;;;-146.27;91.37;42138.53;5071575;28;20028;-71
2024/02/10 03:43:12;;;;;;;7.47;3.08;;;;;;;-146.27;91.61;42134.56;5068869;28;20059;-71
2024/02/10 03:45:38;;;;;;;7.05;3.35;;;;;;;-146.27;91.54;42166.38;5066441;28;20028;-71
2024/02/10 03:48:05;;;;;;;10.80;3.83;;;;;;;-146.27;91.67;42134.56;5068181;28;20063;-71
2024/02/10 03:50:31;;;;;;;10.27;3.60;;;;;;;-146.27;91.78;42146.50;5059183;28;20063;-71
2024/02/10 03:52:58;;;;;;;6.13;3.03;;;;;;;-146.27;91.76;42092.81;5070653;28;20587;-70
2024/02/10 03:55:23;;;;;;;10.02;3.55;;;;;;;-146.27;91.72;42088.84;5070369;28;20036;-71
2024/02/10 03:57:53;;;;;;;8.25;3.53;;;;;;;-146.27;91.88;42082.88;5070586;28;20028;-71
2024/02/10 04:00:26;;;;;;;9.88;4.05;;;;;;;-146.27;91.93;42053.03;5071216;28;20466;-69
2024/02/10 04:02:55;;;;;;;10.68;4.00;;;;;;;-146.27;91.93;42074.91;5068434;28;20062;-71
2024/02/10 04:05:21;;;;;;;9.43;3.58;;;;;;;-146.27;92.05;42023.22;5062129;28;20544;-70
2024/02/10 04:07:52;;;;;;;10.63;3.42;;;;;;;-146.27;92.20;42029.19;5059692;28;20103;-72
2024/02/10 04:10:19;;;;;;;10.27;3.05;;;;;;;-146.27;92.04;42009.28;5067748;28;20036;-71
2024/02/10 04:12:46;;;;;;;9.60;3.17;;;;;;;-146.27;91.88;41993.38;5068334;28;20036;-72
2024/02/10 04:15:12;;;;;;;11.02;3.60;;;;;;;-146.27;92.02;41975.50;5067606;28;20111;-71
2024/02/10 04:17:42;;;;;;;11.02;4.00;;;;;;;-146.27;91.87;41979.47;5070059;28;20059;-73
2024/02/10 04:20:09;;;;;;;7.95;3.13;;;;;;;-146.27;91.79;41919.81;5070340;28;20036;-72
2024/02/10 04:22:37;;;;;;;10.13;3.30;;;;;;;-146.27;91.81;41971.50;5051854;28;20512;-72
2024/02/10 04:25:10;;;;;;;8.70;3.30;;;;;;;-146.27;91.81;41937.72;5064872;28;20040;-72
2024/02/10 04:27:36;;;;;;;8.77;3.42;;;;;;;-146.27;91.70;41971.50;5069326;28;20078;-72
2024/02/10 04:30:06;;;;;;;16.40;4.03;;;;;;;-146.27;91.73;41959.56;5067940;28;20521;-71
2024/02/10 04:32:42;;;;;;;11.23;2.97;;;;;;;-146.27;91.62;41975.50;5068393;28;20430;-72
2024/02/10 04:35:09;;;;;;;9.43;3.33;;;;;;;-146.27;91.42;41947.66;5070571;28;20041;-70
2024/02/10 04:37:35;;;;;;;6.38;3.30;;;;;;;-146.27;91.47;41977.47;5078981;28;20074;-71
2024/02/10 04:40:03;;;;;;;7.70;3.25;;;;;;;-146.27;91.54;41963.56;5069222;28;20034;-71
2024/02/10 04:42:28;;;;;;;10.68;2.95;;;;;;;-146.27;91.43;41943.66;5065117;28;20051;-72
2024/02/10 04:44:58;;;;;;;10.15;3.38;;;;;;;-146.27;91.47;41975.50;5066686;28;20025;-70
2024/02/10 04:47:24;;;;;;;6.95;3.70;;;;;;;-146.27;91.52;41957.59;5064613;28;20033;-70
2024/02/10 04:49:49;;;;;;;11.63;3.72;;;;;;;-146.27;91.40;41979.47;5054726;28;20028;-71
2024/02/10 04:52:18;;;;;;;7.60;3.78;;;;;;;-146.27;91.28;41991.41;5061873;28;20590;-71
2024/02/10 04:54:44;;;;;;;12.32;3.08;;;;;;;-146.27;91.14;42001.34;5067139;28;20036;-72
2024/02/10 04:57:09;;;;;;;12.25;3.58;;;;;;;-146.27;91.20;42051.06;5059550;28;20127;-71
2024/02/10 04:59:35;;;;;;;10.70;3.50;;;;;;;-146.27;91.11;41999.34;5070499;28;20024;-71
2024/02/10 05:02:01;;;;;;;10.30;3.35;;;;;;;-146.27;91.11;42015.25;5070068;28;20433;-71
2024/02/10 05:04:26;;;;;;;11.45;3.85;;;;;;;-146.27;90.94;42035.16;5068319;28;20028;-71
2024/02/10 05:06:51;;;;;;;7.55;4.18;;;;;;;-146.27;91.08;42039.13;5059941;28;20024;-71
2024/02/10 05:09:18;;;;;;;9.75;3.35;;;;;;;-146.27;91.06;42043.09;5070212;28;20025;-71
2024/02/10 05:11:44;;;;;;;11.15;3.75;;;;;;;-146.27;91.07;42051.06;5070273;28;20047;-71
2024/02/10 05:14:12;;;;;;;10.63;3.97;;;;;;;-146.27;91.23;42037.13;5067589;28;20791;-71
2024/02/10 05:16:37;;;;;;;9.85;3.67;;;;;;;-146.27;91.15;42082.88;5056072;28;20036;-71
2024/02/10 05:19:03;;;;;;;6.60;3.47;;;;;;;-146.27;91.08;42031.16;5055405;28;20480;-71
2024/02/10 05:21:29;;;;;;;9.93;4.40;;;;;;;-146.27;91.00;42023.22;5052291;28;20063;-72
2024/02/10 05:23:54;;;;;;;9.40;3.80;;;;;;;-146.27;91.08;42047.06;5068814;28;20044;-70
2024/02/10 05:26:21;;;;;;;11.73;3.42;;;;;;;-146.27;91.12;42055.03;5057478;28;20081;-71
2024/02/10 05:28:49;;;;;;;7.13;3.25;;;;;;;-146.27;91.05;42003.31;5069244;28;20186;-72
2024/02/10 05:31:14;;;;;;;9.48;3.08;;;;;;;-146.27;90.91;42051.06;5068856;28;20035;-71
2024/02/10 05:33:43;;;;;;;10.13;3.42;;;;;;;-146.27;91.21;42043.09;5066933;28;20028;-71
2024/02/10 05:36:10;;;;;;;9.02;3.53;;;;;;;-146.27;91.29;42039.13;5067853;28;20405;-71
2024/02/10 05:38:38;;;;;;;15.18;3.75;;;;;;;-146.27;91.12;42015.25;5065267;28;20020;-72
2024/02/10 05:41:04;;;;;;;11.70;3.50;;;;;;;-146.27;90.87;42013.28;5069308;28;20547;-72
2024/02/10 05:43:32;;;;;;;8.30;3.53;;;;;;;-146.27;90.90;42027.19;5067602;28;20032;-70
2024/02/10 05:46:09;;;;;;;10.77;3.20;;;;;;;-146.27;91.12;42062.97;5067968;28;20025;-72
2024/02/10 05:48:35;;;;;;;7.28;3.25;;;;;;;-146.27;90.91;42027.19;5067994;28;20485;-71
2024/02/10 05:51:01;;;;;;;12.48;2.97;;;;;;;-146.27;90.87;42003.31;5061928;28;20025;-72
2024/02/10 05:53:27;;;;;;;8.25;2.80;;;;;;;-146.27;90.80;42011.28;5062716;28;20029;-70
2024/02/10 05:55:53;;;;;;;10.23;3.72;;;;;;;-146.27;90.86;42059.00;5064790;28;20025;-72
2024/02/10 05:58:23;;;;;;;8.30;3.08;;;;;;;-146.27;90.94;42011.28;5063572;28;20039;-72
2024/02/10 06:00:52;;;;;;;13.90;3.22;;;;;;;-146.27;90.77;42003.31;5050292;28;20428;-72
2024/02/10 06:03:17;;;;;;;6.22;2.83;;;;;;;-146.27;90.82;42011.28;5066122;28;20025;-72
2024/02/10 06:05:43;;;;;;;5.35;2.75;;;;;;;-146.27;90.76;41985.44;5069227;28;20094;-71
2024/02/10 06:08:10;;;;;;;8.05;3.10;;;;;;;-146.27;90.65;41991.41;5065624;28;20074;-72
2024/02/10 06:10:36;;;;;;;5.85;2.58;;;;;;;-146.27;90.75;42003.31;5067082;28;20590;-71
2024/02/10 06:13:01;;;;;;;5.43;2.22;;;;;;;-146.27;90.64;42007.31;5068272;28;20051;-72
2024/02/10 06:15:29;;;;;;;8.20;2.60;;;;;;;-146.27;90.59;41997.34;5068552;28;20506;-71
2024/02/10 06:17:56;;;;;;;7.00;2.90;;;;;;;-146.27;90.41;41977.47;5068022;28;20044;-72
2024/02/10 06:20:24;;;;;;;7.90;3.03;;;;;;;-146.27;90.50;42011.28;5063797;28;20047;-71
2024/02/10 06:22:52;;;;;;;11.15;3.60;;;;;;;-146.27;90.42;41991.41;5062161;28;20089;-72
2024/02/10 06:25:25;;;;;;;10.57;2.97;;;;;;;-146.27;90.37;42029.19;5065772;28;20380;-72
2024/02/10 06:27:59;;;;;;;5.72;2.35;;;;;;;-146.27;90.45;42035.16;5067028;28;20098;-72
2024/02/10 06:30:30;;;;;;;7.65;2.55;;;;;;;-146.27;90.62;42102.75;5061888;28;20039;-72
2024/02/10 06:32:57;;;;;;;10.45;3.53;;;;;;;-146.27;90.61;42031.16;5064578;28;20052;-72
2024/02/10 06:35:23;;;;;;;9.07;3.25;;;;;;;-146.27;90.23;42051.06;5064590;28;20040;-71
2024/02/10 06:37:49;;;;;;;3.65;2.38;;;;;;;-146.27;90.02;42057.00;5068998;28;20039;-71
2024/02/10 06:40:17;;;;;;;8.13;2.58;;;;;;;-146.27;89.94;42070.94;5070586;28;20051;-71
2024/02/10 06:42:46;;;;;;;8.23;2.50;;;;;;;-146.27;89.95;42090.81;5067138;28;20538;-71
2024/02/10 06:45:14;;;;;;;9.45;2.53;;;;;;;-146.27;89.87;42106.72;5069964;28;20028;-71
2024/02/10 06:47:43;;;;;;;4.82;2.45;;;;;;;-146.27;89.71;42120.66;5072362;28;20086;-71
2024/02/10 06:50:13;;;;;;;6.80;2.60;;;;;;;-146.27;89.60;42162.41;5072917;28;20106;-71
2024/02/10 06:52:45;;;;;;;9.35;3.13;;;;;;;-146.27;89.87;42162.41;5072508;28;20507;-71
2024/02/10 06:55:12;;;;;;;8.05;2.80;;;;;;;-146.27;89.61;42178.31;5064056;28;20112;-72
2024/02/10 06:57:41;;;;;;;6.82;2.80;;;;;;;-146.27;89.62;42178.31;5060359;28;20033;-72
2024/02/10 07:00:10;;;;;;;8.05;3.08;;;;;;;-146.27;89.78;42146.50;5064553;28;20020;-71
2024/02/10 07:02:56;;;;;;;8.07;3.53;;;;;;;-146.27;89.84;42166.38;5064456;28;20048;-72
2024/02/10 07:05:23;;;;;;;9.25;3.05;;;;;;;-146.27;89.80;42170.38;5066929;28;20025;-72
2024/02/10 07:07:49;;;;;;;6.22;2.47;;;;;;;-146.27;89.87;42162.41;5068965;28;20040;-72
2024/02/10 07:10:17;;;;;;;4.40;2.35;;;;;;;-146.27;89.89;42176.34;5071789;28;20506;-72
2024/02/10 07:12:44;;;;;;;8.85;3.10;;;;;;;-146.27;90.06;42196.22;5056863;28;20020;-72
2024/02/10 07:15:12;;;;;;;6.72;3.15;;;;;;;-146.27;89.98;42172.34;5067107;28;20029;-72
2024/02/10 07:17:43;;;;;;;10.02;3.20;;;;;;;-146.27;90.10;42208.16;5056992;28;20029;-71
2024/02/10 07:20:25;;;;;;;8.15;3.33;;;;;;;-146.27;90.28;42178.31;5072587;28;20472;-72
2024/02/10 07:23:00;;;;;;;12.73;3.45;;;;;;;-146.27;90.65;42174.34;5063395;28;20430;-72
2024/02/10 07:25:33;;;;;;;9.23;3.22;;;;;;;-146.27;90.13;42202.19;5067199;28;20480;-71
2024/02/10 07:28:02;;;;;;;5.85;3.60;;;;;;;-146.27;89.95;42210.13;5071171;28;20044;-72
2024/02/10 07:30:29;;;;;;;9.63;3.97;;;;;;;-146.27;89.80;42214.13;5071443;28;20024;-72
2024/02/10 07:32:56;;;;;;;5.38;3.40;;;;;;;-146.27;89.59;42222.06;5071767;28;20025;-72
2024/02/10 07:35:22;;;;;;;13.48;4.30;;;;;;;-146.27;89.61;42293.66;5067847;28;20075;-72
2024/02/10 07:37:48;;;;;;;10.50;3.92;;;;;;;-146.27;89.48;42285.72;5069065;28;20051;-72
2024/02/10 07:40:13;;;;;;;10.32;3.78;;;;;;;-146.27;89.28;42321.50;5060407;28;20027;-73
2024/02/10 07:42:39;;;;;;;7.82;3.85;;;;;;;-146.27;89.46;42315.53;5067775;28;20064;-72
2024/02/10 07:45:04;;;;;;;7.43;2.92;;;;;;;-146.27;89.32;42371.22;5069918;28;20542;-72
2024/02/10 07:47:30;;;;;;;11.23;4.18;;;;;;;-146.27;89.22;42381.16;5071369;28;20496;-72
2024/02/10 07:49:58;;;;;;;13.85;4.20;;;;;;;-146.27;89.25;42428.88;5066617;28;20086;-72
2024/02/10 07:52:26;;;;;;;12.65;4.57;;;;;;;-146.27;89.07;42434.84;5057129;28;20081;-71
2024/02/10 07:54:52;;;;;;;7.13;4.63;;;;;;;-146.27;89.13;42504.47;5069947;28;20020;-70
2024/02/10 07:57:20;;;;;;;8.30;4.10;;;;;;;-146.27;89.04;42528.31;5067147;28;20082;-72
2024/02/10 07:59:50;;;;;;;9.73;4.00;;;;;;;-146.27;88.92;42558.16;5076375;28;20854;-72
2024/02/10 08:02:23;;;;;;;5.75;3.10;;;;;;;-146.27;88.91;42621.81;5079151;28;20029;-72
2024/02/10 08:04:51;;;;;;;5.13;2.90;;;;;;;-146.27;88.93;42699.38;5069949;28;20545;-73
2024/02/10 08:07:21;;;;;;;7.65;3.15;;;;;;;-146.27;88.84;42731.19;5074250;28;20027;-72
2024/02/10 08:09:47;;;;;;;7.47;2.92;;;;;;;-146.27;88.72;42774.94;5070852;28;20146;-72
2024/02/10 08:12:22;;;;;;;7.55;3.38;;;;;;;-146.27;88.70;42814.72;5070708;28;20519;-71
2024/02/10 08:14:50;;;;;;;8.68;3.20;;;;;;;-146.27;88.75;42848.53;5073911;28;20095;-72
2024/02/10 08:17:16;;;;;;;7.90;3.05;;;;;;;-146.27;88.65;42838.59;5067971;28;20039;-72
2024/02/10 08:19:42;;;;;;;8.63;2.72;;;;;;;-146.27;88.74;42866.44;5056069;28;20033;-72
2024/02/10 08:22:09;;;;;;;7.95;3.58;;;;;;;-146.27;88.91;42882.34;5055278;28;20029;-72
2024/02/10 08:24:43;;;;;;;9.20;3.70;;;;;;;-146.27;88.92;42876.38;5060648;28;20032;-71
2024/02/10 08:27:10;;;;;;;6.63;3.10;;;;;;;-146.27;89.07;42882.34;5058433;28;20111;-72
2024/02/10 08:29:35;;;;;;;10.00;3.30;;;;;;;-146.27;89.02;42874.38;5070392;28;20023;-71
2024/02/10 08:32:02;;;;;;;12.48;4.18;;;;;;;-146.27;89.22;42878.38;5068896;28;20437;-71
2024/02/10 08:34:31;;;;;;;5.22;3.05;;;;;;;-146.27;89.13;42872.41;5065042;28;20103;-74
2024/02/10 08:37:02;;;;;;;5.63;3.10;;;;;;;-146.27;89.04;42884.34;5068687;28;20399;-71
2024/02/10 08:39:27;;;;;;;6.70;2.90;;;;;;;-146.27;89.00;42862.47;5068718;28;20050;-71
2024/02/10 08:41:54;;;;;;;7.05;3.03;;;;;;;-146.27;89.10;42906.22;5069700;28;20691;-71
2024/02/10 08:44:21;;;;;;;5.90;2.88;;;;;;;-146.27;89.14;42886.31;5068628;28;20032;-72
2024/02/10 08:46:47;;;;;;;4.88;2.95;;;;;;;-146.27;88.93;42890.31;5069317;28;20040;-72
2024/02/10 08:49:14;;;;;;;8.27;3.55;;;;;;;-146.27;88.98;42906.22;5082606;28;20035;-71
2024/02/10 08:51:43;;;;;;;7.00;3.45;;;;;;;-146.27;88.98;42882.34;5070706;28;20024;-71
2024/02/10 08:54:11;;;;;;;8.30;3.83;;;;;;;-146.27;88.91;42910.19;5067615;28;20028;-69
2024/02/10 08:56:41;;;;;;;7.75;4.00;;;;;;;-146.27;88.76;42930.09;5068359;28;20526;-71
2024/02/10 08:59:09;;;;;;;10.45;4.88;;;;;;;-146.27;88.70;42894.28;5070673;28;20515;-70
2024/02/10 09:01:37;;;;;;;8.60;3.65;;;;;;;-146.27;88.63;42892.28;5069250;28;20024;-72
2024/02/10 09:04:03;;;;;;;8.25;4.05;;;;;;;-146.27;88.45;42902.22;5065365;28;20388;-72
2024/02/10 09:06:28;;;;;;;9.68;3.78;;;;;;;-146.27;88.46;42872.41;5062175;28;20028;-71
2024/02/10 09:08:54;;;;;;;6.30;3.33;;;;;;;-146.27;88.47;42870.41;5068723;28;20033;-71
2024/02/10 09:11:19;;;;;;;6.68;3.67;;;;;;;-146.27;88.46;42868.41;5068071;28;20036;-71
2024/02/10 09:13:48;;;;;;;11.70;3.97;;;;;;;-146.27;88.28;42852.50;5058363;28;20365;-71
2024/02/10 09:16:14;;;;;;;10.35;4.60;;;;;;;-146.27;88.04;42914.16;5056213;28;20078;-69
2024/02/10 09:18:43;;;;;;;9.00;4.22;;;;;;;-146.27;87.97;42902.22;5067101;28;20044;-71
2024/02/10 09:21:09;;;;;;;9.20;4.07;;;;;;;-146.27;87.91;42886.31;5060657;28;20037;-71
2024/02/10 09:23:42;;;;;;;9.10;3.55;;;;;;;-146.27;87.81;42866.44;5127937;27;20387;-71
2024/02/10 09:26:15;;;;;;;7.65;3.25;;;;;;;-146.27;87.62;42878.38;5107884;28;20052;-70
2024/02/10 09:28:40;;;;;;;7.43;3.70;;;;;;;-146.27;87.46;42870.41;5097211;28;20081;-71
2024/02/10 09:31:13;;;;;;;9.05;3.40;;;;;;;-146.27;87.38;42838.59;5090963;28;20390;-72
2024/02/10 09:33:38;;;;;;;7.70;3.92;;;;;;;-146.27;87.01;42874.38;5104278;28;20429;-71
2024/02/10 09:36:08;;;;;;;8.48;3.60;;;;;;;-146.27;86.68;42854.50;5106107;28;20062;-72
2024/02/10 09:38:37;;;;;;;6.28;4.10;;;;;;;-146.27;86.69;42826.66;5106065;28;20028;-70
2024/02/10 09:41:03;;;;;;;11.75;4.32;;;;;;;-146.27;86.44;42868.41;5107494;28;20031;-70
2024/02/10 09:43:32;;;;;;;10.00;4.00;;;;;;;-146.27;86.24;42842.56;5107666;28;20141;-69
2024/02/10 09:46:02;;;;;;;9.90;4.20;;;;;;;-146.27;86.37;42864.44;5107232;28;20020;-70
2024/02/10 09:48:31;;;;;;;14.70;4.13;;;;;;;-146.27;86.34;42878.38;5101966;28;20044;-71
2024/02/10 09:50:56;;;;;;;9.60;4.35;;;;;;;-146.27;86.70;42888.31;5106148;28;20038;-71
2024/02/10 09:53:24;;;;;;;9.85;4.38;;;;;;;-146.27;86.51;42898.25;5089736;28;20028;-69
2024/02/10 09:55:56;;;;;;;6.22;3.53;;;;;;;-146.27;86.32;42872.41;5085347;28;20032;-70
2024/02/10 09:58:25;;;;;;;7.97;3.83;;;;;;;-146.27;86.34;42866.44;5087442;28;20028;-70
2024/02/10 10:00:50;;;;;;;9.00;4.15;;;;;;;-146.27;86.39;42858.47;5086852;28;20039;-70
2024/02/10 10:03:16;;;;;;;6.35;4.15;;;;;;;-146.27;86.36;42918.16;5086804;28;20020;-70
2024/02/10 10:05:45;;;;;;;9.35;4.20;;;;;;;-146.27;86.48;42866.44;5080941;28;20051;-71
2024/02/10 10:08:11;;;;;;;7.97;3.70;;;;;;;-146.27;86.29;42864.44;5066565;28;20024;-71
2024/02/10 10:10:37;;;;;;;8.15;3.90;;;;;;;-146.27;86.40;42878.38;5089013;28;20050;-70
2024/02/10 10:13:05;;;;;;;7.32;4.45;;;;;;;-146.27;86.38;42846.53;5080938;28;20344;-71
2024/02/10 10:15:31;;;;;;;7.57;3.75;;;;;;;-146.27;86.13;42838.59;5086359;28;20063;-71
2024/02/10 10:17:56;;;;;;;7.70;3.67;;;;;;;-146.27;85.99;42834.59;5085142;28;20524;-70
2024/02/10 10:20:23;;;;;;;7.35;4.50;;;;;;;-146.27;85.52;42872.41;5084868;28;20438;-70
2024/02/10 10:22:50;;;;;;;10.60;4.53;;;;;;;-146.27;85.18;42844.56;5085622;28;20040;-71
2024/02/10 10:25:16;;;;;;;11.90;4.63;;;;;;;-146.27;84.91;42898.25;5085803;28;20369;-70
2024/02/10 10:27:41;;;;;;;5.50;4.20;;;;;;;-146.27;84.64;42818.69;5085578;28;20032;-71
2024/02/10 10:30:11;;;;;;;7.00;3.60;;;;;;;-146.27;84.35;42874.38;5085076;28;20028;-71
2024/02/10 10:32:42;;;;;;;5.38;3.35;;;;;;;-146.27;83.98;42836.59;5083553;28;20546;-71
2024/02/10 10:35:12;;;;;;;7.15;3.17;;;;;;;-146.27;83.87;42846.53;5071264;28;20052;-70
2024/02/10 10:37:38;;;;;;;4.93;2.72;;;;;;;-146.27;83.23;42932.06;5072621;28;20035;-71
2024/02/10 10:40:10;;;;;;;6.13;2.95;;;;;;;-146.27;83.33;42868.41;5071124;28;20479;-70
2024/02/10 10:42:37;;;;;;;9.13;3.80;;;;;;;-146.27;83.47;42846.53;5070447;28;20036;-70
2024/02/10 10:45:03;;;;;;;6.90;3.58;;;;;;;-146.27;83.60;42836.59;5072098;28;20028;-70
2024/02/10 10:47:29;;;;;;;8.27;2.88;;;;;;;-146.27;82.97;42896.28;5072549;28;20024;-71
2024/02/10 10:49:56;;;;;;;8.48;3.25;;;;;;;-146.27;82.75;42882.34;5071441;28;20017;-70
2024/02/10 10:52:27;;;;;;;11.32;3.53;;;;;;;-146.27;82.21;42995.72;5070821;28;20020;-71
2024/02/10 10:54:55;;;;;;;5.45;3.42;;;;;;;-146.27;82.02;42959.91;5070316;28;20035;-70
2024/02/10 10:57:25;;;;;;;9.63;3.42;;;;;;;-146.27;81.46;42949.97;5071409;28;20453;-70
2024/02/10 11:00:15;;;;;;;6.90;3.60;;;;;;;-146.27;80.94;42926.09;5070833;28;20027;-70
2024/02/10 11:02:45;;;;;;;8.45;3.45;;;;;;;-146.27;80.71;42876.38;5070825;28;20412;-70
2024/02/10 11:05:13;;;;;;;7.60;3.30;;;;;;;-146.27;79.56;42922.13;5071241;28;20111;-70
2024/02/10 11:07:42;;;;;;;13.77;3.58;;;;;;;-146.27;79.68;42834.59;5071695;28;20016;-69
2024/02/10 11:10:09;;;;;;;9.35;3.53;;;;;;;-146.27;78.21;42959.91;5068990;28;20115;-71
2024/02/10 11:12:37;;;;;;;5.13;3.20;;;;;;;-146.27;78.27;42989.75;5070368;28;20490;-70
2024/02/10 11:15:21;;;;;;;6.43;2.67;;;;;;;-146.27;78.48;42884.34;5071517;28;20024;-71